Airfield :
LOGIN :

Register | Disclaimer

   EN    FR    IT 

 










Legend :    VFR   Marginal VFR   IFR   Intensive IFR   Very Intensive IFR
Visi :
Ceiling :
>= 8 km
>= 3000ft
5 to 8 km
1000 to 3000 ft
1500m to 5 km
500 to 1000 ft
800 to 1500m
200 to 500 ft
< 800m
< 200 ft
Symbols :   Thunderstorms  Fog  Heavy snow  Heavy precipitations  Wind > 20 kt
SIGMETs :     Misc.  Thunderstorms  Icing  Turbulence  Mountain Waves  Volcanic Ashes






- Airport Elevation : 202 ft
- IATA code : LGW


EGKK - London Gatwick

CURRENT METAR :
  • 071850Z 22011KT 9999 BKN021 10/08 Q1012

EXPIRED METARs :
  • 071820Z 21007KT 9999 BKN023 10/07 Q1013
  • 071750Z 21007KT 170V240 9999 BKN024 10/06 Q1013
  • 071720Z 23009KT 9999 BKN024 10/06 Q1013
  • 071650Z 22008KT 9999 BKN023 10/07 Q1013
  • 071620Z 23008KT 9999 BKN025 10/07 Q1013

TAF TAF EGKK
Valid from the 07 at 18:00 until the 09 at 00:00 UTC


071658Z 0718/0824 23010KT 9999 SCT030
BECMG 0721/0724 22020G30KT
TEMPO 0721/0802 BKN012
BECMG 0802/0804 4000 RA BKN012
PROB30
TEMPO 0802/0806 +RA BKN008
BECMG 0805/0807 25015G25KT 9999 NSW SCT025
PROB30
TEMPO 0812/0824 26020G35KT 4000 +SHRA



MET'MAP, your aeronautical weather chart ! - Copyright ORBIFLY December 2007 - Disclaimer

ORBIFLY MET'MAP TEAM :

Programming & Development : Alexandra Zaïnal
Concept & original design : Baudouin d'Aumeries
Assistance for programming : Marc-Olivier Méhu
Technical & hardware support : Manuel Goepfert

Contact : metmap@orbifly.com




SOURCES & CREDITS :

   NOAA